sensor_id;sensor_type;location;lat;lon;timestamp;temperature;humidity
45283;DHT22;31023;44.994;1.796;2022-08-18T00:04:33;18.20;99.90
45283;DHT22;31023;44.994;1.796;2022-08-18T00:07:06;18.10;99.90
45283;DHT22;31023;44.994;1.796;2022-08-18T00:09:33;18.00;99.90
45283;DHT22;31023;44.994;1.796;2022-08-18T00:12:00;17.90;99.90
45283;DHT22;31023;44.994;1.796;2022-08-18T00:14:27;17.90;99.90
45283;DHT22;31023;44.994;1.796;2022-08-18T00:16:53;17.90;99.90
45283;DHT22;31023;44.994;1.796;2022-08-18T00:19:19;17.80;99.90
45283;DHT22;31023;44.994;1.796;2022-08-18T00:21:44;17.90;99.90
45283;DHT22;31023;44.994;1.796;2022-08-18T00:24:10;17.80;99.90
45283;DHT22;31023;44.994;1.796;2022-08-18T00:26:35;18.00;99.90
45283;DHT22;31023;44.994;1.796;2022-08-18T00:29:01;17.80;99.90
45283;DHT22;31023;44.994;1.796;2022-08-18T00:31:26;17.70;99.90
45283;DHT22;31023;44.994;1.796;2022-08-18T00:33:53;17.80;99.90
45283;DHT22;31023;44.994;1.796;2022-08-18T00:36:19;17.70;99.90
45283;DHT22;31023;44.994;1.796;2022-08-18T00:38:45;17.60;99.90
45283;DHT22;31023;44.994;1.796;2022-08-18T00:41:10;17.60;99.90
45283;DHT22;31023;44.994;1.796;2022-08-18T00:46:14;17.50;99.90
45283;DHT22;31023;44.994;1.796;2022-08-18T00:48:41;17.50;99.90
45283;DHT22;31023;44.994;1.796;2022-08-18T00:51:09;17.50;99.90
45283;DHT22;31023;44.994;1.796;2022-08-18T00:53:46;17.60;99.90
45283;DHT22;31023;44.994;1.796;2022-08-18T00:56:24;17.60;99.90
45283;DHT22;31023;44.994;1.796;2022-08-18T00:58:52;17.50;99.90
45283;DHT22;31023;44.994;1.796;2022-08-18T01:01:20;17.40;99.90
45283;DHT22;31023;44.994;1.796;2022-08-18T01:03:47;17.30;99.90
45283;DHT22;31023;44.994;1.796;2022-08-18T01:08:56;17.00;99.90
45283;DHT22;31023;44.994;1.796;2022-08-18T01:11:22;17.10;99.90
45283;DHT22;31023;44.994;1.796;2022-08-18T01:13:48;17.10;99.90
45283;DHT22;31023;44.994;1.796;2022-08-18T01:16:13;17.20;99.90
45283;DHT22;31023;44.994;1.796;2022-08-18T01:18:57;17.10;99.90
45283;DHT22;31023;44.994;1.796;2022-08-18T01:21:43;17.20;99.90
45283;DHT22;31023;44.994;1.796;2022-08-18T01:24:23;17.30;99.90
45283;DHT22;31023;44.994;1.796;2022-08-18T01:27:09;17.20;99.90
45283;DHT22;31023;44.994;1.796;2022-08-18T01:29:35;17.10;99.90
45283;DHT22;31023;44.994;1.796;2022-08-18T01:32:01;17.10;99.90
45283;DHT22;31023;44.994;1.796;2022-08-18T01:34:27;17.20;99.90
45283;DHT22;31023;44.994;1.796;2022-08-18T01:36:53;17.20;99.90
45283;DHT22;31023;44.994;1.796;2022-08-18T01:39:19;17.10;99.90
45283;DHT22;31023;44.994;1.796;2022-08-18T01:41:45;17.00;99.90
45283;DHT22;31023;44.994;1.796;2022-08-18T01:44:10;16.80;99.90
45283;DHT22;31023;44.994;1.796;2022-08-18T01:46:36;16.80;99.90
45283;DHT22;31023;44.994;1.796;2022-08-18T01:49:02;16.70;99.90
45283;DHT22;31023;44.994;1.796;2022-08-18T01:51:29;16.80;99.90
45283;DHT22;31023;44.994;1.796;2022-08-18T01:53:56;16.90;99.90
45283;DHT22;31023;44.994;1.796;2022-08-18T01:56:23;16.80;99.90
45283;DHT22;31023;44.994;1.796;2022-08-18T01:58:51;16.90;99.90
45283;DHT22;31023;44.994;1.796;2022-08-18T02:01:16;16.80;99.90
45283;DHT22;31023;44.994;1.796;2022-08-18T02:03:43;16.80;99.90
45283;DHT22;31023;44.994;1.796;2022-08-18T02:06:12;16.80;99.90
45283;DHT22;31023;44.994;1.796;2022-08-18T02:08:38;16.80;99.90
45283;DHT22;31023;44.994;1.796;2022-08-18T02:11:05;16.70;99.90
45283;DHT22;31023;44.994;1.796;2022-08-18T02:13:31;16.70;99.90
45283;DHT22;31023;44.994;1.796;2022-08-18T02:15:56;16.70;99.90
45283;DHT22;31023;44.994;1.796;2022-08-18T02:18:27;16.70;99.90
45283;DHT22;31023;44.994;1.796;2022-08-18T02:20:53;16.80;99.90
45283;DHT22;31023;44.994;1.796;2022-08-18T02:23:19;16.70;99.90
45283;DHT22;31023;44.994;1.796;2022-08-18T02:25:45;16.70;99.90
45283;DHT22;31023;44.994;1.796;2022-08-18T02:28:10;16.60;99.90
45283;DHT22;31023;44.994;1.796;2022-08-18T02:30:36;16.60;99.90
45283;DHT22;31023;44.994;1.796;2022-08-18T02:33:03;16.50;99.90
45283;DHT22;31023;44.994;1.796;2022-08-18T02:35:29;16.50;99.90
45283;DHT22;31023;44.994;1.796;2022-08-18T02:37:57;16.60;99.90
45283;DHT22;31023;44.994;1.796;2022-08-18T02:40:22;16.70;99.90
45283;DHT22;31023;44.994;1.796;2022-08-18T02:42:48;16.70;99.90
45283;DHT22;31023;44.994;1.796;2022-08-18T02:45:14;16.60;99.90
45283;DHT22;31023;44.994;1.796;2022-08-18T02:47:40;16.50;99.90
45283;DHT22;31023;44.994;1.796;2022-08-18T02:50:05;16.50;99.90
45283;DHT22;31023;44.994;1.796;2022-08-18T02:52:31;16.50;99.90
45283;DHT22;31023;44.994;1.796;2022-08-18T02:55:00;16.50;99.90
45283;DHT22;31023;44.994;1.796;2022-08-18T02:57:29;16.50;99.90
45283;DHT22;31023;44.994;1.796;2022-08-18T02:59:55;16.50;99.90
45283;DHT22;31023;44.994;1.796;2022-08-18T03:02:20;16.50;99.90
45283;DHT22;31023;44.994;1.796;2022-08-18T03:04:46;16.40;99.90
45283;DHT22;31023;44.994;1.796;2022-08-18T03:07:12;16.40;99.90
45283;DHT22;31023;44.994;1.796;2022-08-18T03:09:39;16.40;99.90
45283;DHT22;31023;44.994;1.796;2022-08-18T03:12:05;16.50;99.90
45283;DHT22;31023;44.994;1.796;2022-08-18T03:14:32;16.50;99.90
45283;DHT22;31023;44.994;1.796;2022-08-18T03:16:57;16.60;99.90
45283;DHT22;31023;44.994;1.796;2022-08-18T03:19:24;16.70;99.90
45283;DHT22;31023;44.994;1.796;2022-08-18T03:21:50;16.70;99.90
45283;DHT22;31023;44.994;1.796;2022-08-18T03:24:16;16.90;99.90
45283;DHT22;31023;44.994;1.796;2022-08-18T03:26:43;16.80;99.90
45283;DHT22;31023;44.994;1.796;2022-08-18T03:29:10;16.80;99.90
45283;DHT22;31023;44.994;1.796;2022-08-18T03:31:35;17.00;99.90
45283;DHT22;31023;44.994;1.796;2022-08-18T03:34:02;16.80;99.90
45283;DHT22;31023;44.994;1.796;2022-08-18T03:36:29;16.60;99.90
45283;DHT22;31023;44.994;1.796;2022-08-18T03:38:56;16.60;99.90
45283;DHT22;31023;44.994;1.796;2022-08-18T03:41:23;16.70;99.90
45283;DHT22;31023;44.994;1.796;2022-08-18T03:43:49;16.70;99.90
45283;DHT22;31023;44.994;1.796;2022-08-18T03:46:16;16.90;99.90
45283;DHT22;31023;44.994;1.796;2022-08-18T03:48:43;16.90;99.90
45283;DHT22;31023;44.994;1.796;2022-08-18T03:51:18;16.80;99.90
45283;DHT22;31023;44.994;1.796;2022-08-18T03:53:45;16.70;99.90
45283;DHT22;31023;44.994;1.796;2022-08-18T03:56:13;16.80;99.90
45283;DHT22;31023;44.994;1.796;2022-08-18T03:58:43;16.70;99.90
45283;DHT22;31023;44.994;1.796;2022-08-18T04:01:13;16.80;99.90
45283;DHT22;31023;44.994;1.796;2022-08-18T04:03:42;16.80;99.90
45283;DHT22;31023;44.994;1.796;2022-08-18T04:06:12;16.80;99.90
45283;DHT22;31023;44.994;1.796;2022-08-18T04:08:38;16.90;99.90
45283;DHT22;31023;44.994;1.796;2022-08-18T04:11:04;16.90;99.90
45283;DHT22;31023;44.994;1.796;2022-08-18T04:13:29;16.80;99.90
45283;DHT22;31023;44.994;1.796;2022-08-18T04:16:00;16.90;99.90
45283;DHT22;31023;44.994;1.796;2022-08-18T04:18:26;16.80;99.90
45283;DHT22;31023;44.994;1.796;2022-08-18T04:20:52;16.90;99.90
45283;DHT22;31023;44.994;1.796;2022-08-18T04:23:18;16.90;99.90
45283;DHT22;31023;44.994;1.796;2022-08-18T04:25:43;17.00;99.90
45283;DHT22;31023;44.994;1.796;2022-08-18T04:28:09;16.80;99.90
45283;DHT22;31023;44.994;1.796;2022-08-18T04:30:35;16.70;99.90
45283;DHT22;31023;44.994;1.796;2022-08-18T04:33:01;16.80;99.90
45283;DHT22;31023;44.994;1.796;2022-08-18T04:35:27;16.80;99.90
45283;DHT22;31023;44.994;1.796;2022-08-18T04:37:53;16.90;99.90
45283;DHT22;31023;44.994;1.796;2022-08-18T04:40:19;16.90;99.90
45283;DHT22;31023;44.994;1.796;2022-08-18T04:42:44;16.90;99.90
45283;DHT22;31023;44.994;1.796;2022-08-18T04:45:10;17.00;99.90
45283;DHT22;31023;44.994;1.796;2022-08-18T04:47:37;17.00;99.90
45283;DHT22;31023;44.994;1.796;2022-08-18T04:50:06;17.10;99.90
45283;DHT22;31023;44.994;1.796;2022-08-18T04:52:31;17.10;99.90
45283;DHT22;31023;44.994;1.796;2022-08-18T04:55:16;16.90;99.90
45283;DHT22;31023;44.994;1.796;2022-08-18T04:57:41;16.90;99.90
45283;DHT22;31023;44.994;1.796;2022-08-18T05:00:07;16.90;99.90
45283;DHT22;31023;44.994;1.796;2022-08-18T05:02:37;16.90;99.90
45283;DHT22;31023;44.994;1.796;2022-08-18T05:05:04;17.00;99.90
45283;DHT22;31023;44.994;1.796;2022-08-18T05:07:29;17.10;99.90
45283;DHT22;31023;44.994;1.796;2022-08-18T05:09:55;17.00;99.90
45283;DHT22;31023;44.994;1.796;2022-08-18T05:12:21;17.00;99.90
45283;DHT22;31023;44.994;1.796;2022-08-18T05:14:46;17.00;99.90
45283;DHT22;31023;44.994;1.796;2022-08-18T05:17:15;16.90;99.90
45283;DHT22;31023;44.994;1.796;2022-08-18T05:19:40;17.00;99.90
45283;DHT22;31023;44.994;1.796;2022-08-18T05:22:08;17.00;99.90
45283;DHT22;31023;44.994;1.796;2022-08-18T05:24:34;16.90;99.90
45283;DHT22;31023;44.994;1.796;2022-08-18T05:27:00;16.90;99.90
45283;DHT22;31023;44.994;1.796;2022-08-18T05:29:26;16.90;99.90
45283;DHT22;31023;44.994;1.796;2022-08-18T05:31:52;16.80;99.90
45283;DHT22;31023;44.994;1.796;2022-08-18T05:34:20;16.70;99.90
45283;DHT22;31023;44.994;1.796;2022-08-18T05:39:20;16.80;99.90
45283;DHT22;31023;44.994;1.796;2022-08-18T05:44:17;17.00;99.90
45283;DHT22;31023;44.994;1.796;2022-08-18T05:46:47;17.10;99.90
45283;DHT22;31023;44.994;1.796;2022-08-18T05:49:14;17.10;99.90
45283;DHT22;31023;44.994;1.796;2022-08-18T05:51:48;17.30;99.90
45283;DHT22;31023;44.994;1.796;2022-08-18T05:54:14;17.30;99.90
45283;DHT22;31023;44.994;1.796;2022-08-18T05:57:05;17.40;99.90
45283;DHT22;31023;44.994;1.796;2022-08-18T05:59:33;17.80;99.90
45283;DHT22;31023;44.994;1.796;2022-08-18T06:03:02;18.00;99.90
45283;DHT22;31023;44.994;1.796;2022-08-18T06:04:56;18.10;99.90
45283;DHT22;31023;44.994;1.796;2022-08-18T06:10:11;18.00;99.90
45283;DHT22;31023;44.994;1.796;2022-08-18T06:12:38;18.00;99.90
45283;DHT22;31023;44.994;1.796;2022-08-18T06:20:14;18.00;99.90
45283;DHT22;31023;44.994;1.796;2022-08-18T06:25:43;18.10;99.90
45283;DHT22;31023;44.994;1.796;2022-08-18T06:28:13;18.10;99.90
45283;DHT22;31023;44.994;1.796;2022-08-18T06:35:54;18.60;99.90
45283;DHT22;31023;44.994;1.796;2022-08-18T06:38:34;18.60;99.90
45283;DHT22;31023;44.994;1.796;2022-08-18T06:41:10;18.50;99.90
45283;DHT22;31023;44.994;1.796;2022-08-18T06:43:38;18.60;99.90
45283;DHT22;31023;44.994;1.796;2022-08-18T06:46:07;18.70;99.90
45283;DHT22;31023;44.994;1.796;2022-08-18T06:48:39;18.60;99.90
45283;DHT22;31023;44.994;1.796;2022-08-18T06:51:16;18.40;99.90
45283;DHT22;31023;44.994;1.796;2022-08-18T06:56:21;18.50;99.90
45283;DHT22;31023;44.994;1.796;2022-08-18T06:58:47;18.50;99.90
45283;DHT22;31023;44.994;1.796;2022-08-18T07:01:12;18.70;99.90
45283;DHT22;31023;44.994;1.796;2022-08-18T07:03:42;18.60;99.90
45283;DHT22;31023;44.994;1.796;2022-08-18T07:11:56;18.30;99.90
45283;DHT22;31023;44.994;1.796;2022-08-18T07:13:55;18.30;99.90
45283;DHT22;31023;44.994;1.796;2022-08-18T07:18:52;18.00;99.90
45283;DHT22;31023;44.994;1.796;2022-08-18T07:21:26;18.30;99.90
45283;DHT22;31023;44.994;1.796;2022-08-18T07:27:01;18.60;99.90
45283;DHT22;31023;44.994;1.796;2022-08-18T07:29:28;18.70;99.90
45283;DHT22;31023;44.994;1.796;2022-08-18T07:31:54;18.90;99.90
45283;DHT22;31023;44.994;1.796;2022-08-18T07:39:26;19.70;99.90
45283;DHT22;31023;44.994;1.796;2022-08-18T07:47:03;20.50;99.90
45283;DHT22;31023;44.994;1.796;2022-08-18T07:49:32;20.50;99.90
45283;DHT22;31023;44.994;1.796;2022-08-18T07:56:56;21.20;99.90
45283;DHT22;31023;44.994;1.796;2022-08-18T07:59:26;21.40;99.90
45283;DHT22;31023;44.994;1.796;2022-08-18T08:02:13;22.20;99.90
45283;DHT22;31023;44.994;1.796;2022-08-18T08:04:49;22.30;99.90
45283;DHT22;31023;44.994;1.796;2022-08-18T08:07:25;22.00;99.90
45283;DHT22;31023;44.994;1.796;2022-08-18T08:15:21;20.60;99.90
45283;DHT22;31023;44.994;1.796;2022-08-18T08:20:56;21.20;99.90
45283;DHT22;31023;44.994;1.796;2022-08-18T08:23:39;21.90;99.90
45283;DHT22;31023;44.994;1.796;2022-08-18T08:36:35;30.70;95.90
45283;DHT22;31023;44.994;1.796;2022-08-18T08:39:03;31.40;92.50
45283;DHT22;31023;44.994;1.796;2022-08-18T08:41:46;31.50;90.70
45283;DHT22;31023;44.994;1.796;2022-08-18T08:46:45;30.90;84.20
45283;DHT22;31023;44.994;1.796;2022-08-18T08:52:23;27.90;94.30
45283;DHT22;31023;44.994;1.796;2022-08-18T08:54:36;30.80;89.70
45283;DHT22;31023;44.994;1.796;2022-08-18T08:57:02;30.20;87.90
45283;DHT22;31023;44.994;1.796;2022-08-18T08:59:29;27.30;91.70
45283;DHT22;31023;44.994;1.796;2022-08-18T09:06:58;33.20;77.50
45283;DHT22;31023;44.994;1.796;2022-08-18T09:12:15;33.60;75.10
45283;DHT22;31023;44.994;1.796;2022-08-18T09:15:04;30.10;75.80
45283;DHT22;31023;44.994;1.796;2022-08-18T09:20:02;32.60;75.20
45283;DHT22;31023;44.994;1.796;2022-08-18T09:22:49;30.60;73.60
45283;DHT22;31023;44.994;1.796;2022-08-18T09:30:41;26.10;91.40
45283;DHT22;31023;44.994;1.796;2022-08-18T09:35:53;27.80;86.60
45283;DHT22;31023;44.994;1.796;2022-08-18T09:38:24;26.80;90.10
45283;DHT22;31023;44.994;1.796;2022-08-18T09:41:11;27.00;90.40
45283;DHT22;31023;44.994;1.796;2022-08-18T09:44:08;30.90;83.70
45283;DHT22;31023;44.994;1.796;2022-08-18T09:54:25;32.60;71.70
45283;DHT22;31023;44.994;1.796;2022-08-18T10:04:35;34.00;64.00
45283;DHT22;31023;44.994;1.796;2022-08-18T10:13:29;28.50;77.80
45283;DHT22;31023;44.994;1.796;2022-08-18T10:17:54;32.20;69.60
45283;DHT22;31023;44.994;1.796;2022-08-18T10:36:56;27.60;76.30
45283;DHT22;31023;44.994;1.796;2022-08-18T10:42:26;27.50;77.70
45283;DHT22;31023;44.994;1.796;2022-08-18T10:44:49;28.10;77.70
45283;DHT22;31023;44.994;1.796;2022-08-18T10:47:20;27.80;76.90
45283;DHT22;31023;44.994;1.796;2022-08-18T10:49:50;27.70;76.60
45283;DHT22;31023;44.994;1.796;2022-08-18T10:52:26;27.70;76.30
45283;DHT22;31023;44.994;1.796;2022-08-18T11:05:15;28.10;72.70
45283;DHT22;31023;44.994;1.796;2022-08-18T11:07:44;28.20;71.40
45283;DHT22;31023;44.994;1.796;2022-08-18T11:10:21;28.60;71.20
45283;DHT22;31023;44.994;1.796;2022-08-18T11:20:20;27.60;70.90
45283;DHT22;31023;44.994;1.796;2022-08-18T11:22:52;27.70;71.70
45283;DHT22;31023;44.994;1.796;2022-08-18T11:25:31;27.30;73.40
45283;DHT22;31023;44.994;1.796;2022-08-18T11:27:58;27.80;73.90
45283;DHT22;31023;44.994;1.796;2022-08-18T11:30:36;28.40;74.10
45283;DHT22;31023;44.994;1.796;2022-08-18T11:33:06;28.40;73.30
45283;DHT22;31023;44.994;1.796;2022-08-18T11:35:45;27.60;73.20
45283;DHT22;31023;44.994;1.796;2022-08-18T11:38:12;27.60;74.20
45283;DHT22;31023;44.994;1.796;2022-08-18T11:40:39;27.40;75.20
45283;DHT22;31023;44.994;1.796;2022-08-18T11:43:15;27.70;75.70
45283;DHT22;31023;44.994;1.796;2022-08-18T11:48:34;27.50;79.40
45283;DHT22;31023;44.994;1.796;2022-08-18T11:51:02;27.10;76.70
45283;DHT22;31023;44.994;1.796;2022-08-18T11:56:13;26.60;76.40
45283;DHT22;31023;44.994;1.796;2022-08-18T12:01:05;26.60;75.80
45283;DHT22;31023;44.994;1.796;2022-08-18T12:03:37;26.80;79.00
45283;DHT22;31023;44.994;1.796;2022-08-18T12:06:12;26.90;77.70
45283;DHT22;31023;44.994;1.796;2022-08-18T12:09:15;27.10;77.80
45283;DHT22;31023;44.994;1.796;2022-08-18T12:11:36;27.50;76.10
45283;DHT22;31023;44.994;1.796;2022-08-18T12:14:05;27.60;75.20
45283;DHT22;31023;44.994;1.796;2022-08-18T12:16:34;27.70;73.70
45283;DHT22;31023;44.994;1.796;2022-08-18T12:19:00;27.80;74.60
45283;DHT22;31023;44.994;1.796;2022-08-18T12:21:26;27.80;74.60
45283;DHT22;31023;44.994;1.796;2022-08-18T12:23:51;28.00;76.00
45283;DHT22;31023;44.994;1.796;2022-08-18T12:26:17;28.10;76.00
45283;DHT22;31023;44.994;1.796;2022-08-18T12:28:43;27.90;72.50
45283;DHT22;31023;44.994;1.796;2022-08-18T12:31:08;27.80;72.80
45283;DHT22;31023;44.994;1.796;2022-08-18T12:33:34;27.60;74.90
45283;DHT22;31023;44.994;1.796;2022-08-18T12:36:00;27.90;74.00
45283;DHT22;31023;44.994;1.796;2022-08-18T12:38:26;28.00;73.40
45283;DHT22;31023;44.994;1.796;2022-08-18T12:40:52;27.20;74.10
45283;DHT22;31023;44.994;1.796;2022-08-18T12:43:18;26.50;76.10
45283;DHT22;31023;44.994;1.796;2022-08-18T12:45:43;26.70;77.60
45283;DHT22;31023;44.994;1.796;2022-08-18T12:48:09;26.80;77.70
45283;DHT22;31023;44.994;1.796;2022-08-18T12:50:35;26.70;77.40
45283;DHT22;31023;44.994;1.796;2022-08-18T12:53:01;26.40;75.60
45283;DHT22;31023;44.994;1.796;2022-08-18T12:55:27;26.10;75.90
45283;DHT22;31023;44.994;1.796;2022-08-18T12:57:54;26.00;77.70
45283;DHT22;31023;44.994;1.796;2022-08-18T13:00:19;26.00;77.80
45283;DHT22;31023;44.994;1.796;2022-08-18T13:02:45;25.80;76.70
45283;DHT22;31023;44.994;1.796;2022-08-18T13:05:11;26.10;76.80
45283;DHT22;31023;44.994;1.796;2022-08-18T13:07:36;26.90;74.30
45283;DHT22;31023;44.994;1.796;2022-08-18T13:10:03;27.30;73.50
45283;DHT22;31023;44.994;1.796;2022-08-18T13:12:28;26.80;72.20
45283;DHT22;31023;44.994;1.796;2022-08-18T13:14:54;26.90;73.60
45283;DHT22;31023;44.994;1.796;2022-08-18T13:17:20;26.80;74.60
45283;DHT22;31023;44.994;1.796;2022-08-18T13:19:45;26.80;73.80
45283;DHT22;31023;44.994;1.796;2022-08-18T13:22:12;26.50;74.50
45283;DHT22;31023;44.994;1.796;2022-08-18T13:24:37;26.80;74.90
45283;DHT22;31023;44.994;1.796;2022-08-18T13:27:03;27.20;77.70
45283;DHT22;31023;44.994;1.796;2022-08-18T13:29:28;27.70;75.90
45283;DHT22;31023;44.994;1.796;2022-08-18T13:31:54;27.70;73.00
45283;DHT22;31023;44.994;1.796;2022-08-18T13:34:23;27.50;74.20
45283;DHT22;31023;44.994;1.796;2022-08-18T13:36:48;27.50;74.10
45283;DHT22;31023;44.994;1.796;2022-08-18T13:39:17;27.10;72.70
45283;DHT22;31023;44.994;1.796;2022-08-18T13:41:44;26.70;73.20
45283;DHT22;31023;44.994;1.796;2022-08-18T13:44:11;26.70;74.60
45283;DHT22;31023;44.994;1.796;2022-08-18T13:46:37;26.60;73.50
45283;DHT22;31023;44.994;1.796;2022-08-18T13:49:10;26.50;74.20
45283;DHT22;31023;44.994;1.796;2022-08-18T13:51:35;26.00;76.90
45283;DHT22;31023;44.994;1.796;2022-08-18T13:54:01;26.00;77.20
45283;DHT22;31023;44.994;1.796;2022-08-18T13:56:27;25.70;74.70
45283;DHT22;31023;44.994;1.796;2022-08-18T13:58:52;25.30;77.20
45283;DHT22;31023;44.994;1.796;2022-08-18T14:01:18;25.20;77.60
45283;DHT22;31023;44.994;1.796;2022-08-18T14:03:43;25.20;77.20
45283;DHT22;31023;44.994;1.796;2022-08-18T14:06:09;25.00;77.60
45283;DHT22;31023;44.994;1.796;2022-08-18T14:08:35;24.90;77.90
45283;DHT22;31023;44.994;1.796;2022-08-18T14:11:01;24.60;78.70
45283;DHT22;31023;44.994;1.796;2022-08-18T14:13:27;24.70;79.00
45283;DHT22;31023;44.994;1.796;2022-08-18T14:15:54;24.60;80.20
45283;DHT22;31023;44.994;1.796;2022-08-18T14:18:20;24.60;79.50
45283;DHT22;31023;44.994;1.796;2022-08-18T14:20:46;24.40;80.80
45283;DHT22;31023;44.994;1.796;2022-08-18T14:23:30;24.50;81.00
45283;DHT22;31023;44.994;1.796;2022-08-18T14:26:14;24.40;81.00
45283;DHT22;31023;44.994;1.796;2022-08-18T14:28:58;24.40;79.80
45283;DHT22;31023;44.994;1.796;2022-08-18T14:31:24;24.40;80.70
45283;DHT22;31023;44.994;1.796;2022-08-18T14:33:49;24.40;81.60
45283;DHT22;31023;44.994;1.796;2022-08-18T14:36:15;24.40;81.00
45283;DHT22;31023;44.994;1.796;2022-08-18T14:38:41;24.50;80.30
45283;DHT22;31023;44.994;1.796;2022-08-18T14:41:07;24.40;79.10
45283;DHT22;31023;44.994;1.796;2022-08-18T14:43:34;24.40;78.40
45283;DHT22;31023;44.994;1.796;2022-08-18T14:46:02;24.50;77.40
45283;DHT22;31023;44.994;1.796;2022-08-18T14:48:29;24.60;77.80
45283;DHT22;31023;44.994;1.796;2022-08-18T14:50:55;24.60;76.60
45283;DHT22;31023;44.994;1.796;2022-08-18T14:53:22;24.80;76.30
45283;DHT22;31023;44.994;1.796;2022-08-18T14:55:48;24.70;76.90
45283;DHT22;31023;44.994;1.796;2022-08-18T14:58:22;25.10;77.10
45283;DHT22;31023;44.994;1.796;2022-08-18T15:00:52;25.20;76.20
45283;DHT22;31023;44.994;1.796;2022-08-18T15:03:19;25.30;77.30
45283;DHT22;31023;44.994;1.796;2022-08-18T15:05:45;25.20;77.70
45283;DHT22;31023;44.994;1.796;2022-08-18T15:08:10;25.40;75.00
45283;DHT22;31023;44.994;1.796;2022-08-18T15:10:36;25.80;76.40
45283;DHT22;31023;44.994;1.796;2022-08-18T15:13:02;26.00;75.70
45283;DHT22;31023;44.994;1.796;2022-08-18T15:15:27;26.00;75.90
45283;DHT22;31023;44.994;1.796;2022-08-18T15:17:54;25.90;76.50
45283;DHT22;31023;44.994;1.796;2022-08-18T15:20:20;25.50;77.80
45283;DHT22;31023;44.994;1.796;2022-08-18T15:22:46;25.90;77.90
45283;DHT22;31023;44.994;1.796;2022-08-18T15:25:30;26.20;76.70
45283;DHT22;31023;44.994;1.796;2022-08-18T15:28:14;26.10;75.50
45283;DHT22;31023;44.994;1.796;2022-08-18T15:30:45;26.00;75.10
45283;DHT22;31023;44.994;1.796;2022-08-18T15:33:11;25.80;73.50
45283;DHT22;31023;44.994;1.796;2022-08-18T15:35:38;25.80;77.30
45283;DHT22;31023;44.994;1.796;2022-08-18T15:38:04;25.60;77.40
45283;DHT22;31023;44.994;1.796;2022-08-18T15:40:31;25.30;77.10
45283;DHT22;31023;44.994;1.796;2022-08-18T15:42:58;25.30;77.20
45283;DHT22;31023;44.994;1.796;2022-08-18T15:45:29;25.60;78.60
45283;DHT22;31023;44.994;1.796;2022-08-18T15:47:57;25.60;78.30
45283;DHT22;31023;44.994;1.796;2022-08-18T15:50:22;25.60;76.20
45283;DHT22;31023;44.994;1.796;2022-08-18T15:52:49;25.20;77.00
45283;DHT22;31023;44.994;1.796;2022-08-18T15:55:15;25.40;76.40
45283;DHT22;31023;44.994;1.796;2022-08-18T15:57:42;25.50;75.30
45283;DHT22;31023;44.994;1.796;2022-08-18T16:00:08;25.30;75.20
45283;DHT22;31023;44.994;1.796;2022-08-18T16:02:34;25.00;74.20
45283;DHT22;31023;44.994;1.796;2022-08-18T16:04:59;24.90;74.00
45283;DHT22;31023;44.994;1.796;2022-08-18T16:07:27;24.90;73.40
45283;DHT22;31023;44.994;1.796;2022-08-18T16:09:53;24.90;74.10
45283;DHT22;31023;44.994;1.796;2022-08-18T16:12:18;24.70;73.90
45283;DHT22;31023;44.994;1.796;2022-08-18T16:14:44;24.70;74.50
45283;DHT22;31023;44.994;1.796;2022-08-18T16:17:09;24.70;74.00
45283;DHT22;31023;44.994;1.796;2022-08-18T16:19:35;24.80;75.00
45283;DHT22;31023;44.994;1.796;2022-08-18T16:22:01;24.90;74.40
45283;DHT22;31023;44.994;1.796;2022-08-18T16:24:32;24.80;73.80
45283;DHT22;31023;44.994;1.796;2022-08-18T16:26:57;24.60;74.90
45283;DHT22;31023;44.994;1.796;2022-08-18T16:29:23;24.60;74.40
45283;DHT22;31023;44.994;1.796;2022-08-18T16:31:49;24.70;75.20
45283;DHT22;31023;44.994;1.796;2022-08-18T16:34:15;24.60;74.80
45283;DHT22;31023;44.994;1.796;2022-08-18T16:36:40;24.60;74.50
45283;DHT22;31023;44.994;1.796;2022-08-18T16:39:06;24.70;75.00
45283;DHT22;31023;44.994;1.796;2022-08-18T16:41:32;24.70;75.20
45283;DHT22;31023;44.994;1.796;2022-08-18T16:43:57;24.70;74.80
45283;DHT22;31023;44.994;1.796;2022-08-18T16:46:23;24.80;75.00
45283;DHT22;31023;44.994;1.796;2022-08-18T16:48:52;24.90;75.60
45283;DHT22;31023;44.994;1.796;2022-08-18T16:51:19;24.90;75.20
45283;DHT22;31023;44.994;1.796;2022-08-18T16:53:46;24.90;75.50
45283;DHT22;31023;44.994;1.796;2022-08-18T16:56:16;24.80;75.10
45283;DHT22;31023;44.994;1.796;2022-08-18T16:58:41;24.80;74.30
45283;DHT22;31023;44.994;1.796;2022-08-18T17:01:25;25.00;74.30
45283;DHT22;31023;44.994;1.796;2022-08-18T17:04:10;25.10;72.90
45283;DHT22;31023;44.994;1.796;2022-08-18T17:06:37;25.00;73.40
45283;DHT22;31023;44.994;1.796;2022-08-18T17:09:03;25.10;75.00
45283;DHT22;31023;44.994;1.796;2022-08-18T17:11:29;25.00;74.20
45283;DHT22;31023;44.994;1.796;2022-08-18T17:13:56;24.90;73.40
45283;DHT22;31023;44.994;1.796;2022-08-18T17:16:22;24.80;72.20
45283;DHT22;31023;44.994;1.796;2022-08-18T17:18:51;24.70;72.70
45283;DHT22;31023;44.994;1.796;2022-08-18T17:21:18;24.60;71.40
45283;DHT22;31023;44.994;1.796;2022-08-18T17:23:44;24.50;72.70
45283;DHT22;31023;44.994;1.796;2022-08-18T17:26:27;24.50;73.70
45283;DHT22;31023;44.994;1.796;2022-08-18T17:28:55;24.30;73.60
45283;DHT22;31023;44.994;1.796;2022-08-18T17:31:22;24.30;72.70
45283;DHT22;31023;44.994;1.796;2022-08-18T17:33:48;24.30;72.60
45283;DHT22;31023;44.994;1.796;2022-08-18T17:36:27;24.40;72.90
45283;DHT22;31023;44.994;1.796;2022-08-18T17:38:56;24.40;72.90
45283;DHT22;31023;44.994;1.796;2022-08-18T17:41:23;24.40;72.40
45283;DHT22;31023;44.994;1.796;2022-08-18T17:43:49;24.40;73.40
45283;DHT22;31023;44.994;1.796;2022-08-18T17:48:46;24.40;74.90
45283;DHT22;31023;44.994;1.796;2022-08-18T17:51:15;24.40;72.80
45283;DHT22;31023;44.994;1.796;2022-08-18T17:54:23;24.30;73.30
45283;DHT22;31023;44.994;1.796;2022-08-18T17:56:48;24.10;72.80
45283;DHT22;31023;44.994;1.796;2022-08-18T17:59:34;24.10;73.00
45283;DHT22;31023;44.994;1.796;2022-08-18T18:02:11;24.00;72.80
45283;DHT22;31023;44.994;1.796;2022-08-18T18:04:39;23.90;72.40
45283;DHT22;31023;44.994;1.796;2022-08-18T18:07:15;23.80;73.30
45283;DHT22;31023;44.994;1.796;2022-08-18T18:09:42;23.70;73.10
45283;DHT22;31023;44.994;1.796;2022-08-18T18:12:21;23.60;73.40
45283;DHT22;31023;44.994;1.796;2022-08-18T18:14:47;23.60;74.10
45283;DHT22;31023;44.994;1.796;2022-08-18T18:19:39;23.40;73.70
45283;DHT22;31023;44.994;1.796;2022-08-18T18:22:09;23.40;75.20
45283;DHT22;31023;44.994;1.796;2022-08-18T18:24:46;23.40;76.10
45283;DHT22;31023;44.994;1.796;2022-08-18T18:27:28;23.30;75.40
45283;DHT22;31023;44.994;1.796;2022-08-18T18:30:04;23.20;76.20
45283;DHT22;31023;44.994;1.796;2022-08-18T18:32:31;23.10;76.50
45283;DHT22;31023;44.994;1.796;2022-08-18T18:35:15;23.00;76.80